aviador You're here:

KPNC Decoded Metar

PONCA CITY in OK, USA
Report Time2018-06-18 15:12:00
UTC Time2018-06-18 15:28:44
Flight Rules mvfr MVFR
Wind190° at 07 Gusting to 17 kt
W.Decomp.*RWY 17: 6.8 kt HW 1.8 kt RCW
W.Rank190° ranks 5
Current wind is below 190° avg. (7.0)
Visibility9999 m
Phenomena:N/A
Clouds:Broken 025 Hf
Expected CloudBase > 3,200 ft AGL from Temp-Dew spread
Ceiling2,500 ft
Temp29°C (ISA +16)
Dew Point21°C (62% RH)
Heat Index31.3°C
QNH1016 hPa
Density Alt3,077 ft
Elevation1,010 ft
Report Wrong Elevation
Raw Report
KPNC 181512Z AUTO 19007G17KT 10SM BKN025 29/21 A3001 RMK AO2
T02890211=

Extra information for KPNC:More info

Metar Taf Metar & Taf Last 4 Metars F.Rules Stats Wind Profile Meteogram Temp Stats Airport Information Weather charts Add Link Nearby VenuesMetar ALERT Operation Metar Decoded Social comments

AIRNAV info for KPNC